createdAt,value
2018-06-15T00:01:19.596Z,4.97
2018-06-15T00:03:52.588Z,4.67
2018-06-15T00:06:25.598Z,4.60
2018-06-15T00:08:58.603Z,3.83
2018-06-15T00:11:31.614Z,3.80
2018-06-15T00:14:04.619Z,5.50
2018-06-15T00:16:37.622Z,4.90
2018-06-15T00:19:10.643Z,6.50
2018-06-15T00:21:43.684Z,6.73
2018-06-15T00:24:16.710Z,3.87
2018-06-15T00:26:49.731Z,5.33
2018-06-15T00:29:22.799Z,4.60
2018-06-15T00:31:55.746Z,7.23
2018-06-15T00:34:28.782Z,5.53
2018-06-15T00:37:01.774Z,4.97
2018-06-15T00:39:34.810Z,8.87
2018-06-15T00:42:07.826Z,5.27
2018-06-15T00:44:40.838Z,6.10
2018-06-15T00:47:13.829Z,5.83
2018-06-15T00:49:46.818Z,6.10
2018-06-15T00:52:19.850Z,5.13
2018-06-15T00:54:52.829Z,5.37
2018-06-15T00:57:37.474Z,8.93
2018-06-15T01:00:10.460Z,6.70
2018-06-15T01:02:43.503Z,5.10
2018-06-15T01:05:16.485Z,7.70
2018-06-15T01:07:49.577Z,8.77
2018-06-15T01:10:22.560Z,8.73
2018-06-15T01:12:55.565Z,7.07
2018-06-15T01:15:28.560Z,6.73
2018-06-15T01:18:01.570Z,10.83
2018-06-15T01:20:34.635Z,7.40
2018-06-15T01:23:07.681Z,7.10
2018-06-15T01:25:40.714Z,9.23
2018-06-15T01:28:13.731Z,8.20
2018-06-15T01:30:46.747Z,10.47
2018-06-15T01:33:19.788Z,14.83
2018-06-15T01:35:52.798Z,10.90
2018-06-15T01:38:25.818Z,10.03
2018-06-15T01:40:58.852Z,7.23
2018-06-15T01:43:31.865Z,13.67
2018-06-15T01:46:04.874Z,9.87
2018-06-15T01:48:37.903Z,11.40
2018-06-15T01:51:10.917Z,7.00
2018-06-15T01:53:43.941Z,8.40
2018-06-15T01:56:16.969Z,7.10
2018-06-15T01:58:50.019Z,6.40
2018-06-15T02:01:23.150Z,8.90
2018-06-15T02:03:56.107Z,7.77
2018-06-15T02:06:29.162Z,9.73
2018-06-15T02:09:02.174Z,8.63
2018-06-15T02:11:35.178Z,8.90
2018-06-15T02:14:08.243Z,8.80
2018-06-15T02:16:41.269Z,7.87
2018-06-15T02:19:14.278Z,7.40
2018-06-15T02:21:47.285Z,9.37
2018-06-15T02:24:20.356Z,7.30
2018-06-15T02:26:53.354Z,9.17
2018-06-15T02:29:26.358Z,7.63
2018-06-15T02:32:12.717Z,7.60
2018-06-15T02:34:45.749Z,8.43
2018-06-15T02:37:18.768Z,8.07
2018-06-15T02:39:51.799Z,7.77
2018-06-15T02:42:24.814Z,8.50
2018-06-15T02:44:57.830Z,9.43
2018-06-15T02:47:30.818Z,8.07
2018-06-15T02:50:03.930Z,9.53
2018-06-15T02:52:36.970Z,9.63
2018-06-15T02:55:10.024Z,9.63
2018-06-15T02:57:43.062Z,10.93
2018-06-15T03:00:16.076Z,9.97
2018-06-15T03:02:49.102Z,12.73
2018-06-15T03:05:22.134Z,12.93
2018-06-15T03:07:55.141Z,8.80
2018-06-15T03:10:28.165Z,9.10
2018-06-15T03:13:01.180Z,9.97
2018-06-15T03:15:34.190Z,10.73
2018-06-15T03:18:07.192Z,10.40
2018-06-15T03:20:40.234Z,20.40
2018-06-15T03:23:13.247Z,11.13
2018-06-15T03:25:46.303Z,10.20
2018-06-15T03:28:19.319Z,9.87
2018-06-15T03:30:52.340Z,11.50
2018-06-15T03:33:25.367Z,10.27
2018-06-15T03:35:58.406Z,9.93
2018-06-15T03:38:31.413Z,13.47
2018-06-15T03:41:04.763Z,14.47
2018-06-15T03:43:37.777Z,10.93
2018-06-15T03:46:10.798Z,12.67
2018-06-15T03:48:43.809Z,9.77
2018-06-15T03:51:16.850Z,14.27
2018-06-15T03:53:49.873Z,10.23
2018-06-15T03:56:22.941Z,11.13
2018-06-15T03:58:57.070Z,19.30
2018-06-15T04:01:30.089Z,10.40
2018-06-15T04:04:03.095Z,12.03
2018-06-15T04:06:36.141Z,11.10
2018-06-15T04:09:09.834Z,13.30
2018-06-15T04:11:42.889Z,15.33
2018-06-15T04:14:15.909Z,16.30
2018-06-15T04:16:48.983Z,16.93
2018-06-15T04:19:21.998Z,11.63
2018-06-15T04:21:55.058Z,12.60
2018-06-15T04:24:28.090Z,12.97
2018-06-15T04:27:01.109Z,12.47
2018-06-15T04:29:34.152Z,15.10
2018-06-15T04:32:07.310Z,14.03
2018-06-15T04:34:40.319Z,13.43
2018-06-15T04:37:13.352Z,14.77
2018-06-15T04:39:46.218Z,15.47
2018-06-15T04:42:19.264Z,14.37
2018-06-15T04:44:52.358Z,17.87
2018-06-15T04:47:25.782Z,20.40
2018-06-15T04:49:58.929Z,17.13
2018-06-15T04:52:47.827Z,18.17
2018-06-15T05:01:53.830Z,19.70
2018-06-15T05:04:26.986Z,15.93
2018-06-15T05:07:00.115Z,20.10
2018-06-15T05:09:33.715Z,18.27
2018-06-15T05:12:06.800Z,26.23
2018-06-15T05:14:39.798Z,23.97
2018-06-15T05:17:12.940Z,16.37
2018-06-15T05:19:45.965Z,16.77
2018-06-15T05:22:19.099Z,22.33
2018-06-15T05:24:52.266Z,18.57
2018-06-15T05:27:25.389Z,21.43
2018-06-15T05:29:58.454Z,20.40
2018-06-15T05:32:31.523Z,16.87
2018-06-15T05:35:04.657Z,19.93
2018-06-15T05:37:37.738Z,18.73
2018-06-15T05:40:11.142Z,21.50
2018-06-15T05:42:44.246Z,19.40
2018-06-15T05:45:17.046Z,21.60
2018-06-15T05:47:50.167Z,18.67
2018-06-15T05:50:23.354Z,18.83
2018-06-15T05:52:56.386Z,18.67
2018-06-15T05:55:29.438Z,18.67
2018-06-15T05:58:03.172Z,18.57
2018-06-15T06:00:36.350Z,20.73
2018-06-15T06:03:09.423Z,19.43
2018-06-15T06:05:42.762Z,21.63
2018-06-15T06:08:17.309Z,19.20
2018-06-15T06:10:50.540Z,17.37
2018-06-15T06:13:23.790Z,17.93
2018-06-15T06:15:56.846Z,19.60
2018-06-15T06:18:30.861Z,17.83
2018-06-15T06:21:03.944Z,18.87
2018-06-15T06:23:36.966Z,22.07
2018-06-15T06:26:10.365Z,23.23
2018-06-15T06:28:43.421Z,20.90
2018-06-15T06:31:16.438Z,24.13
2018-06-15T06:33:49.484Z,17.77
2018-06-15T06:36:22.551Z,20.23
2018-06-15T06:38:55.565Z,22.27
2018-06-15T06:41:28.614Z,18.53
2018-06-15T06:44:01.638Z,20.63
2018-06-15T06:46:34.645Z,18.20
2018-06-15T06:49:07.694Z,20.53
2018-06-15T06:51:40.705Z,22.10
2018-06-15T06:54:13.749Z,17.13
2018-06-15T06:56:46.774Z,17.33
2018-06-15T06:59:19.918Z,18.73
2018-06-15T07:01:52.969Z,19.90
2018-06-15T07:04:26.023Z,16.80
2018-06-15T07:12:44.942Z,18.70
2018-06-15T07:15:17.968Z,18.00
2018-06-15T07:17:50.998Z,16.87
2018-06-15T07:20:26.054Z,24.30
2018-06-15T07:22:59.082Z,23.60
2018-06-15T07:25:32.119Z,19.37
2018-06-15T07:28:05.181Z,17.33
2018-06-15T07:30:38.211Z,18.03
2018-06-15T07:33:11.835Z,17.30
2018-06-15T07:35:45.064Z,17.40
2018-06-15T07:38:19.754Z,19.97
2018-06-15T07:40:52.770Z,21.23
2018-06-15T07:43:25.811Z,20.20
2018-06-15T07:45:58.907Z,19.10
2018-06-15T07:48:31.981Z,17.53
2018-06-15T07:51:04.994Z,18.77
2018-06-15T07:53:38.057Z,19.43
2018-06-15T07:56:11.114Z,20.43
2018-06-15T07:58:44.132Z,18.97
2018-06-15T08:01:17.158Z,17.57
2018-06-15T08:03:55.694Z,19.27
2018-06-15T08:06:28.727Z,18.10
2018-06-15T08:09:07.870Z,17.47
2018-06-15T08:11:42.098Z,21.60
2018-06-15T08:14:15.150Z,19.00
2018-06-15T08:16:48.173Z,20.57
2018-06-15T08:19:21.217Z,17.90
2018-06-15T08:21:54.266Z,18.50
2018-06-15T08:24:27.320Z,22.97
2018-06-15T08:27:00.362Z,19.20
2018-06-15T08:29:33.401Z,20.93
2018-06-15T08:32:06.774Z,19.40
2018-06-15T08:34:39.677Z,18.63
2018-06-15T08:37:12.937Z,20.77
2018-06-15T08:39:45.973Z,22.67
2018-06-15T08:42:19.021Z,18.37
2018-06-15T08:44:52.035Z,31.73
2018-06-15T08:47:25.227Z,38.93
2018-06-15T08:49:58.390Z,26.13
2018-06-15T08:52:31.566Z,24.50
2018-06-15T08:55:04.741Z,21.30
2018-06-15T08:57:37.782Z,17.47
2018-06-15T09:00:10.854Z,32.90
2018-06-15T09:02:43.910Z,19.37
2018-06-15T09:05:17.175Z,22.53
2018-06-15T09:07:50.216Z,31.03
2018-06-15T09:10:23.250Z,20.80
2018-06-15T09:12:56.274Z,23.23
2018-06-15T09:15:29.337Z,17.63
2018-06-15T09:18:02.374Z,16.47
2018-06-15T09:20:35.945Z,16.23
2018-06-15T09:23:08.987Z,17.73
2018-06-15T09:25:42.054Z,14.70
2018-06-15T09:28:15.065Z,14.90
2018-06-15T09:30:48.131Z,15.37
2018-06-15T09:33:22.135Z,16.77
2018-06-15T09:35:55.197Z,18.60
2018-06-15T09:38:28.249Z,16.70
2018-06-15T09:41:01.305Z,20.30
2018-06-15T09:43:34.329Z,13.43
2018-06-15T09:46:07.431Z,16.47
2018-06-15T09:48:42.453Z,13.87
2018-06-15T09:51:16.019Z,14.37
2018-06-15T09:53:49.077Z,15.13
2018-06-15T09:56:22.291Z,13.57
2018-06-15T09:58:56.648Z,14.63
2018-06-15T10:01:29.712Z,24.00
2018-06-15T10:04:02.788Z,14.80
2018-06-15T10:06:35.846Z,11.17
2018-06-15T10:09:08.838Z,9.67
2018-06-15T10:11:41.877Z,8.00
2018-06-15T10:14:14.937Z,8.50
2018-06-15T10:16:47.958Z,8.17
2018-06-15T10:19:20.981Z,8.87
2018-06-15T10:21:54.051Z,10.27
2018-06-15T10:24:27.072Z,8.00
2018-06-15T10:27:00.081Z,5.37
2018-06-15T10:29:33.093Z,6.17
2018-06-15T10:32:06.131Z,7.30
2018-06-15T10:34:39.202Z,18.03
2018-06-15T10:37:12.263Z,8.27
2018-06-15T10:39:45.322Z,5.50
2018-06-15T10:42:18.342Z,6.77
2018-06-15T10:44:51.374Z,13.10
2018-06-15T10:47:24.381Z,5.97
2018-06-15T10:49:57.390Z,7.30
2018-06-15T10:52:30.477Z,8.27
2018-06-15T10:55:03.565Z,9.13
2018-06-15T10:57:36.601Z,3.27
2018-06-15T11:00:09.615Z,4.50
2018-06-15T11:02:42.703Z,3.83
2018-06-15T11:05:15.725Z,3.23
2018-06-15T11:07:49.001Z,3.63
2018-06-15T11:10:22.035Z,3.57
2018-06-15T11:12:55.085Z,2.93
2018-06-15T11:15:28.112Z,3.83
2018-06-15T11:18:01.154Z,4.90
2018-06-15T11:20:34.206Z,4.10
2018-06-15T11:23:07.232Z,4.53
2018-06-15T11:25:40.258Z,3.63
2018-06-15T11:28:13.327Z,3.40
2018-06-15T11:30:46.318Z,3.80
2018-06-15T11:33:19.754Z,5.07
2018-06-15T11:35:52.805Z,6.23
2018-06-15T11:38:25.827Z,4.47
2018-06-15T11:40:58.868Z,6.13
2018-06-15T11:43:31.934Z,8.17
2018-06-15T11:46:04.956Z,4.13
2018-06-15T11:48:38.005Z,3.43
2018-06-15T11:51:11.002Z,4.90
2018-06-15T11:53:44.040Z,2.73
2018-06-15T11:56:17.090Z,3.63
2018-06-15T11:58:50.155Z,3.33
2018-06-15T12:01:23.198Z,5.73
2018-06-15T12:03:56.249Z,3.00
2018-06-15T12:06:29.298Z,3.77
2018-06-15T12:09:02.359Z,4.00
2018-06-15T12:11:35.531Z,5.27
2018-06-15T12:14:08.570Z,5.33
2018-06-15T12:16:41.595Z,4.33
2018-06-15T12:19:14.618Z,5.30
2018-06-15T12:21:47.622Z,4.53
2018-06-15T12:24:20.699Z,9.83
2018-06-15T12:26:53.719Z,5.27
2018-06-15T12:29:26.774Z,5.30
2018-06-15T12:31:59.796Z,7.30
2018-06-15T12:34:32.857Z,5.63
2018-06-15T12:37:05.935Z,5.57
2018-06-15T12:39:38.979Z,3.77
2018-06-15T12:42:12.033Z,5.13
2018-06-15T12:44:45.086Z,6.77
2018-06-15T12:47:18.134Z,7.30
2018-06-15T12:49:51.146Z,4.07
2018-06-15T12:52:24.157Z,5.77
2018-06-15T12:54:57.254Z,4.97
2018-06-15T12:57:30.318Z,5.13
2018-06-15T13:00:03.448Z,5.77
2018-06-15T13:02:36.479Z,6.43
2018-06-15T13:05:09.556Z,4.20
2018-06-15T13:07:42.617Z,4.97
2018-06-15T13:10:15.637Z,7.83
2018-06-15T13:12:48.710Z,4.70
2018-06-15T13:15:21.756Z,13.10
2018-06-15T13:17:54.793Z,4.37
2018-06-15T13:20:27.832Z,3.60
2018-06-15T13:23:00.887Z,7.67
2018-06-15T13:25:33.962Z,8.17
2018-06-15T13:28:06.966Z,4.27
2018-06-15T13:30:40.014Z,6.53
2018-06-15T13:33:13.018Z,5.47
2018-06-15T13:35:46.050Z,3.40
2018-06-15T13:38:19.078Z,4.13
2018-06-15T13:40:52.124Z,3.77
2018-06-15T13:43:25.156Z,5.80
2018-06-15T13:45:58.225Z,3.57
2018-06-15T13:48:31.246Z,3.90
2018-06-15T13:51:04.269Z,4.63
2018-06-15T13:53:37.287Z,4.87
2018-06-15T13:56:10.311Z,4.30
2018-06-15T13:58:43.348Z,6.97
2018-06-15T14:01:16.359Z,3.70
2018-06-15T14:03:49.388Z,5.63
2018-06-15T14:06:22.443Z,4.63
2018-06-15T14:08:57.559Z,5.47
2018-06-15T14:11:30.608Z,5.20
2018-06-15T14:14:03.843Z,5.77
2018-06-15T14:16:36.898Z,13.60
2018-06-15T14:19:10.032Z,5.67
2018-06-15T14:21:44.149Z,4.73
2018-06-15T14:24:17.153Z,4.53
2018-06-15T14:26:50.257Z,8.17
2018-06-15T14:29:23.321Z,4.90
2018-06-15T14:31:56.418Z,4.67
2018-06-15T14:34:29.459Z,5.07
2018-06-15T14:37:02.542Z,5.00
2018-06-15T14:39:35.560Z,5.33
2018-06-15T14:42:08.729Z,4.27
2018-06-15T14:44:41.762Z,5.47
2018-06-15T14:47:14.806Z,3.27
2018-06-15T14:49:47.842Z,4.53
2018-06-15T14:52:24.540Z,5.93
2018-06-15T14:54:57.395Z,37.83
2018-06-15T14:57:30.508Z,5.50
2018-06-15T15:00:03.580Z,6.33
2018-06-15T15:02:36.618Z,6.30
2018-06-15T15:05:09.634Z,6.80
2018-06-15T15:07:42.746Z,2.57
2018-06-15T15:10:15.830Z,4.17
2018-06-15T15:12:48.703Z,4.90
2018-06-15T15:15:21.815Z,4.47
2018-06-15T15:17:54.858Z,6.43
2018-06-15T15:20:28.014Z,3.13
2018-06-15T15:23:01.058Z,4.30
2018-06-15T15:25:34.123Z,5.30
2018-06-15T15:28:07.313Z,6.30
2018-06-15T15:30:40.354Z,3.60
2018-06-15T15:33:13.409Z,4.57
2018-06-15T15:35:46.453Z,12.77
2018-06-15T15:38:19.485Z,4.50
2018-06-15T15:40:52.522Z,7.53
2018-06-15T15:43:26.190Z,5.33
2018-06-15T15:45:59.238Z,5.50
2018-06-15T15:48:32.290Z,4.23
2018-06-15T15:51:05.475Z,4.27
2018-06-15T15:53:38.541Z,7.40
2018-06-15T15:56:11.601Z,4.63
2018-06-15T15:58:44.705Z,5.40
2018-06-15T16:01:17.792Z,3.80
2018-06-15T16:03:50.833Z,6.80
2018-06-15T16:06:23.861Z,3.13
2018-06-15T16:08:57.058Z,5.03
2018-06-15T16:11:30.058Z,7.90
2018-06-15T16:14:03.104Z,7.73
2018-06-15T16:16:36.128Z,21.87
2018-06-15T16:19:09.194Z,5.53
2018-06-15T16:21:42.249Z,10.30
2018-06-15T16:24:15.341Z,9.40
2018-06-15T16:26:48.371Z,13.07
2018-06-15T16:29:21.423Z,46.97
2018-06-15T16:31:54.531Z,30.47
2018-06-15T16:34:27.607Z,8.70
2018-06-15T16:37:00.642Z,10.67
2018-06-15T16:39:33.497Z,4.07
2018-06-15T16:42:06.524Z,3.80
2018-06-15T16:44:39.604Z,5.07
2018-06-15T16:47:12.666Z,5.93
2018-06-15T16:49:45.694Z,8.77
2018-06-15T16:52:18.709Z,3.53
2018-06-15T16:54:51.790Z,3.03
2018-06-15T16:57:24.978Z,7.43
2018-06-15T16:59:58.244Z,8.13
2018-06-15T17:02:31.358Z,12.50
2018-06-15T17:05:04.466Z,5.57
2018-06-15T17:07:37.490Z,3.60
2018-06-15T17:10:10.668Z,3.70
2018-06-15T17:12:43.700Z,8.33
2018-06-15T17:15:16.783Z,5.53
2018-06-15T17:17:49.858Z,14.00
2018-06-15T17:20:23.036Z,11.47
2018-06-15T17:22:56.821Z,5.47
2018-06-15T17:25:29.950Z,3.37
2018-06-15T17:28:02.961Z,6.80
2018-06-15T17:30:36.053Z,11.47
2018-06-15T17:33:09.102Z,14.87
2018-06-15T17:35:42.212Z,7.27
2018-06-15T17:38:15.263Z,8.23
2018-06-15T17:40:48.324Z,6.50
2018-06-15T17:43:21.517Z,6.10
2018-06-15T17:45:54.570Z,8.80
2018-06-15T17:48:27.726Z,13.63
2018-06-15T17:51:00.879Z,8.20
2018-06-15T17:53:33.890Z,10.90
2018-06-15T17:56:06.997Z,12.90
2018-06-15T17:58:40.046Z,16.70
2018-06-15T18:01:13.135Z,7.50
2018-06-15T18:03:46.206Z,11.50
2018-06-15T18:06:19.266Z,4.53
2018-06-15T18:08:52.413Z,4.03
2018-06-15T18:11:25.418Z,6.47
2018-06-15T18:13:58.260Z,8.83
2018-06-15T18:16:31.329Z,6.20
2018-06-15T18:19:04.366Z,8.60
2018-06-15T18:21:37.475Z,8.50
2018-06-15T18:24:11.589Z,8.20
2018-06-15T18:26:44.647Z,32.40
2018-06-15T18:29:17.748Z,19.40
2018-06-15T18:31:50.839Z,19.03
2018-06-15T18:34:23.883Z,14.00
2018-06-15T18:36:56.998Z,4.77
2018-06-15T18:39:30.050Z,24.03
2018-06-15T18:42:03.130Z,9.67
2018-06-15T18:44:36.273Z,14.07
2018-06-15T18:47:09.362Z,7.63
2018-06-15T18:49:42.382Z,8.53
2018-06-15T18:52:15.552Z,9.67
2018-06-15T18:54:48.655Z,6.10
2018-06-15T18:57:21.777Z,7.03
2018-06-15T18:59:54.842Z,11.57
2018-06-15T19:02:27.890Z,10.30
2018-06-15T19:05:00.977Z,23.53
2018-06-15T19:07:34.112Z,16.37
2018-06-15T19:10:07.195Z,11.10
2018-06-15T19:12:40.309Z,17.47
2018-06-15T19:15:13.368Z,10.07
2018-06-15T19:17:46.481Z,10.80
2018-06-15T19:20:19.532Z,7.40
2018-06-15T19:22:52.615Z,7.83
2018-06-15T19:25:25.718Z,6.77
2018-06-15T19:27:58.748Z,6.60
2018-06-15T19:30:31.804Z,7.40
2018-06-15T19:33:04.853Z,9.03
2018-06-15T19:35:37.907Z,8.47
2018-06-15T19:38:10.986Z,9.50
2018-06-15T19:40:44.019Z,35.67
2018-06-15T19:43:17.134Z,17.87
2018-06-15T19:45:50.171Z,20.10
2018-06-15T19:48:23.231Z,6.43
2018-06-15T19:50:56.229Z,6.83
2018-06-15T19:53:29.330Z,6.83
2018-06-15T19:56:02.434Z,4.20
2018-06-15T19:58:35.534Z,6.43
2018-06-15T20:01:08.558Z,4.60
2018-06-15T20:03:41.639Z,5.60
2018-06-15T20:06:14.826Z,6.27
2018-06-15T20:08:47.954Z,5.80
2018-06-15T20:11:21.039Z,4.83
2018-06-15T20:13:54.253Z,7.03
2018-06-15T20:16:27.355Z,3.93
2018-06-15T20:19:00.635Z,6.33
2018-06-15T20:21:33.750Z,4.07
2018-06-15T20:24:06.820Z,6.70
2018-06-15T20:26:39.902Z,6.70
2018-06-15T20:29:13.033Z,7.70
2018-06-15T20:31:47.179Z,7.80
2018-06-15T20:34:20.219Z,4.80
2018-06-15T20:36:53.264Z,5.87
2018-06-15T20:39:26.329Z,7.13
2018-06-15T20:41:59.399Z,7.07
2018-06-15T20:44:32.501Z,5.43
2018-06-15T20:47:05.525Z,6.53
2018-06-15T20:49:38.582Z,5.73
2018-06-15T20:52:11.593Z,6.20
2018-06-15T20:54:44.630Z,5.50
2018-06-15T20:57:17.657Z,6.87
2018-06-15T20:59:50.698Z,5.67
2018-06-15T21:02:23.729Z,6.43
2018-06-15T21:04:56.753Z,5.63
2018-06-15T21:07:29.770Z,4.00
2018-06-15T21:10:02.839Z,5.67
2018-06-15T21:12:35.869Z,5.67
2018-06-15T21:15:08.897Z,11.70
2018-06-15T21:17:41.926Z,5.23
2018-06-15T21:20:14.945Z,5.13
2018-06-15T21:22:47.978Z,8.87
2018-06-15T21:25:21.038Z,7.30
2018-06-15T21:27:54.177Z,6.63
2018-06-15T21:30:27.290Z,5.10
2018-06-15T21:33:00.313Z,6.67
2018-06-15T21:35:33.331Z,12.73
2018-06-15T21:38:06.444Z,6.77
2018-06-15T21:40:39.577Z,6.80
2018-06-15T21:43:12.586Z,8.30
2018-06-15T21:45:45.602Z,6.43
2018-06-15T21:48:18.633Z,5.93
2018-06-15T21:50:52.214Z,7.67
2018-06-15T21:53:25.258Z,6.93
2018-06-15T21:55:58.275Z,7.60
2018-06-15T21:58:31.276Z,5.13
2018-06-15T22:01:04.371Z,7.33
2018-06-15T22:03:37.379Z,6.07
2018-06-15T22:06:10.432Z,7.07
2018-06-15T22:08:43.491Z,8.13
2018-06-15T22:11:16.525Z,7.23
2018-06-15T22:13:49.543Z,7.50
2018-06-15T22:16:22.591Z,8.17
2018-06-15T22:18:55.606Z,7.50
2018-06-15T22:21:28.658Z,8.50
2018-06-15T22:24:01.684Z,5.73
2018-06-15T22:26:34.742Z,7.33
2018-06-15T22:29:07.766Z,6.13
2018-06-15T22:31:40.942Z,6.67
2018-06-15T22:34:13.960Z,8.27
2018-06-15T22:36:46.977Z,9.63
2018-06-15T22:39:20.024Z,8.00
2018-06-15T22:41:53.138Z,7.07
2018-06-15T22:44:26.162Z,7.43
2018-06-15T22:46:59.179Z,10.50
2018-06-15T22:49:32.239Z,8.57
2018-06-15T22:52:05.298Z,8.53
2018-06-15T22:54:38.330Z,6.60
2018-06-15T22:57:11.378Z,8.27
2018-06-15T22:59:44.397Z,9.13
2018-06-15T23:02:17.477Z,10.37
2018-06-15T23:04:50.478Z,11.47
2018-06-15T23:07:23.333Z,6.80
2018-06-15T23:09:56.390Z,8.17
2018-06-15T23:12:29.451Z,10.50
2018-06-15T23:15:02.479Z,7.37
2018-06-15T23:17:35.489Z,9.77
2018-06-15T23:20:08.706Z,7.60
2018-06-15T23:22:41.753Z,8.83
2018-06-15T23:25:14.810Z,10.80
2018-06-15T23:27:47.867Z,12.77
2018-06-15T23:30:20.896Z,12.73
2018-06-15T23:32:53.942Z,11.80
2018-06-15T23:35:26.957Z,9.87
2018-06-15T23:38:00.012Z,10.87
2018-06-15T23:40:33.063Z,13.50
2018-06-15T23:43:06.118Z,12.00
2018-06-15T23:45:39.162Z,11.53
2018-06-15T23:48:12.247Z,10.03
2018-06-15T23:50:45.234Z,6.27
2018-06-15T23:53:18.291Z,11.80
2018-06-15T23:55:51.301Z,9.93
2018-06-15T23:58:24.302Z,9.17
